Startpagina
METAR-TAF:

METAR-TAF

Vliegvelden :

Luchthaven van Christchurch

Christchurch, Nieuw-Zeeland

breedte: 43-29S, lengte: 172-33E, hoogte: 38 m

Actueel weer

Dit bericht is 22 minuten geleden gemaakt, om 21:30 UTC
Wind 3 kt uit het zuiden
Temperatuur 10°C
Vochtigheid 66%
Druk 1006 hPa
Zicht 10 km of meer

METAR: NZCH 162130Z AUTO 19003KT 9999 NCD 10/04 Q1006 NOSIG

Tijdstip: 09:52 (21:52 UTC)

Verwachting

Dit bericht is 4 uur en het 47 minuten geleden gemaakt, om 17:05 UTC
Verwachting geldig van 16 om 18 UTC tot 17 om 18 UTC
Wind 2 kt uit variabele richting
Zicht 10 km of meer
geen wolken onder 1500 m en geen cumulonimbus
Wijzigt naar
van 16 om 22 UTC tot 17 om 00 UTC
Wind 10 kt uit het westnoordwesten
Wijzigt naar
van 17 om 06 UTC tot 17 om 08 UTC
Wind 2 kt uit variabele richting

TAF: NZCH 161705Z 1618/1718 VRB02KT CAVOK BECMG 1622/1700 30010KT BECMG 1706/1708 VRB02KT

Waarnemingen en weersverwachtingen van meer dan 4000 vliegvelden (METAR en TAF).

De beschikbare stations zijn de gele en rode punten op de kaart.

Ga met uw muis naar het station om de naam te zien.

Klik dan om waarnemingen en weersverwachtingen te zien.

kaart wijzigen: klik op de groene knoppen met een zwart kruis om in te zoomen, op de groene knop met een streepje om uit te zoomen of op de groene pijlen voor aangrenzende kaarten.


METAR-TAF: